sensor_id;sensor_type;location;lat;lon;timestamp;pressure;altitude;pressure_sealevel;temperature;humidity
28927;BME280;16038;47.692;9.400;2023-10-09T00:02:12;97422.19;;;10.79;100.00
28927;BME280;16038;47.692;9.400;2023-10-09T00:04:42;97419.81;;;10.78;100.00
28927;BME280;16038;47.692;9.400;2023-10-09T00:07:12;97417.41;;;10.76;100.00
28927;BME280;16038;47.692;9.400;2023-10-09T00:09:39;97421.13;;;10.68;100.00
28927;BME280;16038;47.692;9.400;2023-10-09T00:12:17;97419.41;;;10.63;100.00
28927;BME280;16038;47.692;9.400;2023-10-09T00:14:48;97416.56;;;10.60;100.00
28927;BME280;16038;47.692;9.400;2023-10-09T00:17:18;97420.09;;;10.60;100.00
28927;BME280;16038;47.692;9.400;2023-10-09T00:19:45;97413.84;;;10.60;100.00
28927;BME280;16038;47.692;9.400;2023-10-09T00:22:15;97414.97;;;10.59;100.00
28927;BME280;16038;47.692;9.400;2023-10-09T00:25:03;97411.34;;;10.55;100.00
28927;BME280;16038;47.692;9.400;2023-10-09T00:27:40;97414.41;;;10.53;100.00
28927;BME280;16038;47.692;9.400;2023-10-09T00:30:12;97423.00;;;10.51;100.00
28927;BME280;16038;47.692;9.400;2023-10-09T00:32:47;97411.22;;;10.51;100.00
28927;BME280;16038;47.692;9.400;2023-10-09T00:35:18;97415.13;;;10.50;100.00
28927;BME280;16038;47.692;9.400;2023-10-09T00:38:03;97410.44;;;10.50;100.00
28927;BME280;16038;47.692;9.400;2023-10-09T00:40:40;97409.31;;;10.51;100.00
28927;BME280;16038;47.692;9.400;2023-10-09T00:43:16;97402.34;;;10.54;100.00
28927;BME280;16038;47.692;9.400;2023-10-09T00:45:46;97401.16;;;10.55;100.00
28927;BME280;16038;47.692;9.400;2023-10-09T00:48:12;97398.81;;;10.54;100.00
28927;BME280;16038;47.692;9.400;2023-10-09T00:50:48;97397.44;;;10.47;100.00
28927;BME280;16038;47.692;9.400;2023-10-09T00:53:18;97393.72;;;10.40;100.00
28927;BME280;16038;47.692;9.400;2023-10-09T00:55:55;97387.25;;;10.32;100.00
28927;BME280;16038;47.692;9.400;2023-10-09T00:58:28;97385.75;;;10.22;100.00
28927;BME280;16038;47.692;9.400;2023-10-09T01:00:56;97389.56;;;10.18;100.00
28927;BME280;16038;47.692;9.400;2023-10-09T01:03:24;97389.91;;;10.16;100.00
28927;BME280;16038;47.692;9.400;2023-10-09T01:05:53;97384.53;;;10.20;100.00
28927;BME280;16038;47.692;9.400;2023-10-09T01:08:23;97384.53;;;10.20;100.00
28927;BME280;16038;47.692;9.400;2023-10-09T01:11:16;97384.19;;;10.21;100.00
28927;BME280;16038;47.692;9.400;2023-10-09T01:13:55;97387.69;;;10.22;100.00
28927;BME280;16038;47.692;9.400;2023-10-09T01:16:38;97383.38;;;10.21;100.00
28927;BME280;16038;47.692;9.400;2023-10-09T01:19:13;97377.31;;;10.27;100.00
28927;BME280;16038;47.692;9.400;2023-10-09T01:21:42;97379.59;;;10.25;100.00
28927;BME280;16038;47.692;9.400;2023-10-09T01:24:23;97376.75;;;10.22;100.00
28927;BME280;16038;47.692;9.400;2023-10-09T01:26:51;97374.25;;;10.17;100.00
28927;BME280;16038;47.692;9.400;2023-10-09T01:29:23;97384.44;;;10.04;100.00
28927;BME280;16038;47.692;9.400;2023-10-09T01:31:54;97377.03;;;10.04;100.00
28927;BME280;16038;47.692;9.400;2023-10-09T01:34:31;97376.47;;;9.99;100.00
28927;BME280;16038;47.692;9.400;2023-10-09T01:37:17;97374.53;;;9.99;100.00
28927;BME280;16038;47.692;9.400;2023-10-09T01:39:49;97373.75;;;9.86;100.00
28927;BME280;16038;47.692;9.400;2023-10-09T01:42:16;97366.50;;;9.78;100.00
28927;BME280;16038;47.692;9.400;2023-10-09T01:44:53;97367.97;;;9.75;100.00
28927;BME280;16038;47.692;9.400;2023-10-09T01:47:19;97363.31;;;9.76;100.00
28927;BME280;16038;47.692;9.400;2023-10-09T01:49:47;97360.69;;;9.80;100.00
28927;BME280;16038;47.692;9.400;2023-10-09T01:52:18;97356.78;;;9.81;100.00
28927;BME280;16038;47.692;9.400;2023-10-09T01:54:50;97356.13;;;9.84;100.00
28927;BME280;16038;47.692;9.400;2023-10-09T01:57:19;97354.47;;;9.95;100.00
28927;BME280;16038;47.692;9.400;2023-10-09T01:59:48;97356.28;;;10.03;100.00
28927;BME280;16038;47.692;9.400;2023-10-09T02:02:15;97354.25;;;10.00;100.00
28927;BME280;16038;47.692;9.400;2023-10-09T02:05:00;97359.50;;;9.93;100.00
28927;BME280;16038;47.692;9.400;2023-10-09T02:07:38;97348.00;;;9.87;100.00
28927;BME280;16038;47.692;9.400;2023-10-09T02:10:13;97349.03;;;9.83;100.00
28927;BME280;16038;47.692;9.400;2023-10-09T02:12:57;97351.91;;;9.74;100.00
28927;BME280;16038;47.692;9.400;2023-10-09T02:15:27;97358.88;;;9.71;100.00
28927;BME280;16038;47.692;9.400;2023-10-09T02:20:52;97355.91;;;9.64;100.00
28927;BME280;16038;47.692;9.400;2023-10-09T02:23:32;97353.06;;;9.61;100.00
28927;BME280;16038;47.692;9.400;2023-10-09T02:26:11;97354.25;;;9.47;100.00
28927;BME280;16038;47.692;9.400;2023-10-09T02:29:03;97356.97;;;9.23;100.00
28927;BME280;16038;47.692;9.400;2023-10-09T02:31:40;97359.03;;;9.13;100.00
28927;BME280;16038;47.692;9.400;2023-10-09T02:34:09;97347.63;;;9.24;100.00
28927;BME280;16038;47.692;9.400;2023-10-09T02:36:36;97350.56;;;9.31;100.00
28927;BME280;16038;47.692;9.400;2023-10-09T02:39:15;97349.56;;;9.35;100.00
28927;BME280;16038;47.692;9.400;2023-10-09T02:41:54;97342.59;;;9.38;100.00
28927;BME280;16038;47.692;9.400;2023-10-09T02:44:38;97345.34;;;9.38;100.00
28927;BME280;16038;47.692;9.400;2023-10-09T02:47:14;97347.28;;;9.37;100.00
28927;BME280;16038;47.692;9.400;2023-10-09T02:49:49;97347.97;;;9.34;100.00
28927;BME280;16038;47.692;9.400;2023-10-09T02:52:16;97341.69;;;9.34;100.00
28927;BME280;16038;47.692;9.400;2023-10-09T02:54:47;97340.91;;;9.33;100.00
28927;BME280;16038;47.692;9.400;2023-10-09T02:57:13;97340.13;;;9.33;100.00
28927;BME280;16038;47.692;9.400;2023-10-09T03:00:05;97339.31;;;9.32;100.00
28927;BME280;16038;47.692;9.400;2023-10-09T03:02:35;97341.47;;;9.27;100.00
28927;BME280;16038;47.692;9.400;2023-10-09T03:05:06;97331.31;;;9.27;100.00
28927;BME280;16038;47.692;9.400;2023-10-09T03:07:31;97332.94;;;9.28;100.00
28927;BME280;16038;47.692;9.400;2023-10-09T03:09:59;97334.31;;;9.22;100.00
28927;BME280;16038;47.692;9.400;2023-10-09T03:12:24;97327.56;;;9.19;100.00
28927;BME280;16038;47.692;9.400;2023-10-09T03:14:52;97324.06;;;9.19;100.00
28927;BME280;16038;47.692;9.400;2023-10-09T03:17:19;97315.97;;;9.10;100.00
28927;BME280;16038;47.692;9.400;2023-10-09T03:19:45;97326.31;;;8.80;100.00
28927;BME280;16038;47.692;9.400;2023-10-09T03:22:11;97313.84;;;8.46;100.00
28927;BME280;16038;47.692;9.400;2023-10-09T03:24:37;97314.34;;;8.39;100.00
28927;BME280;16038;47.692;9.400;2023-10-09T03:27:03;97319.53;;;8.53;100.00
28927;BME280;16038;47.692;9.400;2023-10-09T03:29:29;97312.63;;;8.55;100.00
28927;BME280;16038;47.692;9.400;2023-10-09T03:31:55;97316.38;;;8.63;100.00
28927;BME280;16038;47.692;9.400;2023-10-09T03:34:22;97323.13;;;8.78;100.00
28927;BME280;16038;47.692;9.400;2023-10-09T03:36:47;97326.66;;;8.91;100.00
28927;BME280;16038;47.692;9.400;2023-10-09T03:39:14;97315.06;;;8.94;100.00
28927;BME280;16038;47.692;9.400;2023-10-09T03:41:58;97324.50;;;8.84;100.00
28927;BME280;16038;47.692;9.400;2023-10-09T03:44:27;97317.31;;;8.67;100.00
28927;BME280;16038;47.692;9.400;2023-10-09T03:46:55;97317.03;;;8.48;100.00
28927;BME280;16038;47.692;9.400;2023-10-09T03:49:21;97316.03;;;8.52;100.00
28927;BME280;16038;47.692;9.400;2023-10-09T03:51:51;97317.97;;;8.64;100.00
28927;BME280;16038;47.692;9.400;2023-10-09T03:54:17;97315.59;;;8.75;100.00
28927;BME280;16038;47.692;9.400;2023-10-09T03:56:46;97326.66;;;8.91;100.00
28927;BME280;16038;47.692;9.400;2023-10-09T03:59:18;97317.22;;;9.01;100.00
28927;BME280;16038;47.692;9.400;2023-10-09T04:01:47;97315.19;;;8.97;100.00
28927;BME280;16038;47.692;9.400;2023-10-09T04:04:14;97318.91;;;8.93;100.00
28927;BME280;16038;47.692;9.400;2023-10-09T04:06:40;97320.16;;;8.83;100.00
28927;BME280;16038;47.692;9.400;2023-10-09T04:09:07;97322.44;;;8.81;100.00
28927;BME280;16038;47.692;9.400;2023-10-09T04:11:48;97323.69;;;8.84;100.00
28927;BME280;16038;47.692;9.400;2023-10-09T04:14:24;97313.47;;;8.80;100.00
28927;BME280;16038;47.692;9.400;2023-10-09T04:16:57;97310.72;;;8.68;100.00
28927;BME280;16038;47.692;9.400;2023-10-09T04:19:49;97314.03;;;8.74;100.00
28927;BME280;16038;47.692;9.400;2023-10-09T04:22:38;97308.78;;;8.69;100.00
28927;BME280;16038;47.692;9.400;2023-10-09T04:25:22;97309.31;;;8.62;100.00
28927;BME280;16038;47.692;9.400;2023-10-09T04:28:08;97315.97;;;8.40;100.00
28927;BME280;16038;47.692;9.400;2023-10-09T04:30:47;97311.50;;;8.23;100.00
28927;BME280;16038;47.692;9.400;2023-10-09T04:33:19;97301.03;;;8.25;100.00
28927;BME280;16038;47.692;9.400;2023-10-09T04:38:43;97300.88;;;8.55;100.00
28927;BME280;16038;47.692;9.400;2023-10-09T04:41:24;97303.75;;;8.58;100.00
28927;BME280;16038;47.692;9.400;2023-10-09T04:43:54;97296.94;;;8.65;100.00
28927;BME280;16038;47.692;9.400;2023-10-09T04:46:39;97298.53;;;8.66;100.00
28927;BME280;16038;47.692;9.400;2023-10-09T04:49:09;97307.03;;;8.64;100.00
28927;BME280;16038;47.692;9.400;2023-10-09T04:51:53;97300.13;;;8.67;100.00
28927;BME280;16038;47.692;9.400;2023-10-09T04:54:30;97303.31;;;8.69;100.00
28927;BME280;16038;47.692;9.400;2023-10-09T04:57:05;97307.97;;;8.68;100.00
28927;BME280;16038;47.692;9.400;2023-10-09T04:59:43;97300.00;;;8.63;100.00
28927;BME280;16038;47.692;9.400;2023-10-09T05:02:13;97307.97;;;8.68;100.00
28927;BME280;16038;47.692;9.400;2023-10-09T05:04:46;97300.78;;;8.64;100.00
28927;BME280;16038;47.692;9.400;2023-10-09T05:07:13;97298.03;;;8.51;100.00
28927;BME280;16038;47.692;9.400;2023-10-09T05:09:57;97305.91;;;8.53;100.00
28927;BME280;16038;47.692;9.400;2023-10-09T05:12:40;97305.91;;;8.53;100.00
28927;BME280;16038;47.692;9.400;2023-10-09T05:15:13;97295.53;;;8.46;100.00
28927;BME280;16038;47.692;9.400;2023-10-09T05:17:39;97309.41;;;8.53;100.00
28927;BME280;16038;47.692;9.400;2023-10-09T05:20:08;97302.50;;;8.56;100.00
28927;BME280;16038;47.692;9.400;2023-10-09T05:22:52;97314.13;;;8.65;100.00
28927;BME280;16038;47.692;9.400;2023-10-09T05:25:24;97307.97;;;8.68;100.00
28927;BME280;16038;47.692;9.400;2023-10-09T05:28:16;97311.97;;;8.71;100.00
28927;BME280;16038;47.692;9.400;2023-10-09T05:30:57;97318.31;;;8.75;100.00
28927;BME280;16038;47.692;9.400;2023-10-09T05:33:35;97313.91;;;8.70;100.00
28927;BME280;16038;47.692;9.400;2023-10-09T05:36:05;97318.34;;;8.63;100.00
28927;BME280;16038;47.692;9.400;2023-10-09T05:38:40;97317.97;;;8.64;100.00
28927;BME280;16038;47.692;9.400;2023-10-09T05:41:12;97324.25;;;8.65;100.00
28927;BME280;16038;47.692;9.400;2023-10-09T05:43:56;97331.75;;;8.68;100.00
28927;BME280;16038;47.692;9.400;2023-10-09T05:46:44;97328.22;;;8.67;100.00
28927;BME280;16038;47.692;9.400;2023-10-09T05:49:28;97330.75;;;8.72;100.00
28927;BME280;16038;47.692;9.400;2023-10-09T05:52:12;97332.34;;;8.73;100.00
28927;BME280;16038;47.692;9.400;2023-10-09T05:54:56;97332.69;;;8.72;100.00
28927;BME280;16038;47.692;9.400;2023-10-09T05:57:40;97330.63;;;8.69;100.00
28927;BME280;16038;47.692;9.400;2023-10-09T06:00:24;97336.19;;;8.72;100.00
28927;BME280;16038;47.692;9.400;2023-10-09T06:03:09;97326.41;;;8.84;100.00
28927;BME280;16038;47.692;9.400;2023-10-09T06:05:51;97325.75;;;8.87;100.00
28927;BME280;16038;47.692;9.400;2023-10-09T06:08:28;97329.72;;;8.89;100.00
28927;BME280;16038;47.692;9.400;2023-10-09T06:11:10;97335.09;;;8.98;100.00
28927;BME280;16038;47.692;9.400;2023-10-09T06:13:55;97330.19;;;9.04;100.00
28927;BME280;16038;47.692;9.400;2023-10-09T06:16:37;97329.06;;;9.29;100.00
28927;BME280;16038;47.692;9.400;2023-10-09T06:19:15;97337.84;;;9.47;100.00
28927;BME280;16038;47.692;9.400;2023-10-09T06:21:48;97346.78;;;9.72;100.00
28927;BME280;16038;47.692;9.400;2023-10-09T06:24:20;97343.19;;;9.97;100.00
28927;BME280;16038;47.692;9.400;2023-10-09T06:26:48;97349.13;;;10.27;100.00
28927;BME280;16038;47.692;9.400;2023-10-09T06:29:40;97352.91;;;10.22;100.00
28927;BME280;16038;47.692;9.400;2023-10-09T06:32:09;97354.69;;;10.43;100.00
28927;BME280;16038;47.692;9.400;2023-10-09T06:34:49;97362.72;;;10.23;100.00
28927;BME280;16038;47.692;9.400;2023-10-09T06:37:18;97355.41;;;10.27;100.00
28927;BME280;16038;47.692;9.400;2023-10-09T06:39:53;97365.56;;;10.55;100.00
28927;BME280;16038;47.692;9.400;2023-10-09T06:42:22;97351.66;;;10.92;100.00
28927;BME280;16038;47.692;9.400;2023-10-09T06:45:11;97353.09;;;11.69;100.00
28927;BME280;16038;47.692;9.400;2023-10-09T06:47:40;97353.59;;;12.49;100.00
28927;BME280;16038;47.692;9.400;2023-10-09T06:50:19;97355.63;;;13.41;100.00
28927;BME280;16038;47.692;9.400;2023-10-09T06:52:52;97365.84;;;13.67;100.00
28927;BME280;16038;47.692;9.400;2023-10-09T06:55:44;97370.09;;;14.86;100.00
28927;BME280;16038;47.692;9.400;2023-10-09T06:58:20;97378.88;;;15.95;100.00
28927;BME280;16038;47.692;9.400;2023-10-09T07:00:53;97380.72;;;16.47;95.55
28927;BME280;16038;47.692;9.400;2023-10-09T07:03:37;97388.47;;;17.39;93.04
28927;BME280;16038;47.692;9.400;2023-10-09T07:06:18;97386.06;;;17.06;90.49
28927;BME280;16038;47.692;9.400;2023-10-09T07:08:56;97385.47;;;16.50;98.92
28927;BME280;16038;47.692;9.400;2023-10-09T07:11:35;97391.25;;;15.16;100.00
28927;BME280;16038;47.692;9.400;2023-10-09T07:17:07;97400.72;;;15.15;100.00
28927;BME280;16038;47.692;9.400;2023-10-09T07:19:45;97408.22;;;17.20;100.00
28927;BME280;16038;47.692;9.400;2023-10-09T07:22:12;97416.97;;;17.54;94.04
28927;BME280;16038;47.692;9.400;2023-10-09T07:24:47;97420.06;;;17.10;99.84
28927;BME280;16038;47.692;9.400;2023-10-09T07:27:26;97407.00;;;15.56;100.00
28927;BME280;16038;47.692;9.400;2023-10-09T07:30:27;97404.03;;;14.26;100.00
28927;BME280;16038;47.692;9.400;2023-10-09T07:33:06;97400.78;;;14.81;100.00
28927;BME280;16038;47.692;9.400;2023-10-09T07:40:39;97406.50;;;16.72;100.00
28927;BME280;16038;47.692;9.400;2023-10-09T07:43:24;97411.41;;;18.05;100.00
28927;BME280;16038;47.692;9.400;2023-10-09T07:46:16;97410.75;;;18.89;100.00
28927;BME280;16038;47.692;9.400;2023-10-09T07:49:04;97409.03;;;19.65;99.71
28927;BME280;16038;47.692;9.400;2023-10-09T07:51:40;97412.44;;;20.67;86.37
28927;BME280;16038;47.692;9.400;2023-10-09T07:54:09;97422.13;;;20.52;86.76
28927;BME280;16038;47.692;9.400;2023-10-09T07:56:40;97421.28;;;20.89;86.72
28927;BME280;16038;47.692;9.400;2023-10-09T07:59:14;97417.50;;;21.85;80.89
28927;BME280;16038;47.692;9.400;2023-10-09T08:01:43;97416.75;;;22.88;75.29
28927;BME280;16038;47.692;9.400;2023-10-09T08:04:23;97432.81;;;23.57;70.53
28927;BME280;16038;47.692;9.400;2023-10-09T08:07:10;97427.59;;;23.92;68.53
28927;BME280;16038;47.692;9.400;2023-10-09T08:09:48;97433.09;;;24.12;65.32
28927;BME280;16038;47.692;9.400;2023-10-09T08:12:14;97429.41;;;23.98;68.04
28927;BME280;16038;47.692;9.400;2023-10-09T08:14:58;97435.41;;;24.30;65.71
28927;BME280;16038;47.692;9.400;2023-10-09T08:17:37;97442.00;;;24.07;66.66
28927;BME280;16038;47.692;9.400;2023-10-09T08:20:03;97434.81;;;22.83;73.98
28927;BME280;16038;47.692;9.400;2023-10-09T08:22:38;97429.00;;;22.10;79.78
28927;BME280;16038;47.692;9.400;2023-10-09T08:25:11;97428.00;;;21.77;83.97
28927;BME280;16038;47.692;9.400;2023-10-09T08:27:56;97438.91;;;21.91;84.42
28927;BME280;16038;47.692;9.400;2023-10-09T08:30:23;97431.22;;;22.43;81.40
28927;BME280;16038;47.692;9.400;2023-10-09T08:32:50;97428.44;;;22.83;79.56
28927;BME280;16038;47.692;9.400;2023-10-09T08:35:29;97435.72;;;23.17;75.91
28927;BME280;16038;47.692;9.400;2023-10-09T08:38:02;97438.19;;;23.31;76.77
28927;BME280;16038;47.692;9.400;2023-10-09T08:40:43;97441.81;;;23.48;72.44
28927;BME280;16038;47.692;9.400;2023-10-09T08:43:15;97450.91;;;24.18;69.86
28927;BME280;16038;47.692;9.400;2023-10-09T08:48:13;97445.53;;;23.25;71.45
28927;BME280;16038;47.692;9.400;2023-10-09T08:50:43;97435.00;;;22.32;76.62
28927;BME280;16038;47.692;9.400;2023-10-09T08:53:10;97436.38;;;22.44;75.81
28927;BME280;16038;47.692;9.400;2023-10-09T08:55:39;97438.75;;;22.86;78.47
28927;BME280;16038;47.692;9.400;2023-10-09T08:58:05;97433.03;;;22.73;79.11
28927;BME280;16038;47.692;9.400;2023-10-09T09:00:39;97437.38;;;22.94;75.40
28927;BME280;16038;47.692;9.400;2023-10-09T09:03:08;97447.34;;;23.32;76.58
28927;BME280;16038;47.692;9.400;2023-10-09T09:05:34;97448.44;;;23.54;73.63
28927;BME280;16038;47.692;9.400;2023-10-09T09:08:01;97450.22;;;23.64;72.69
28927;BME280;16038;47.692;9.400;2023-10-09T09:10:28;97448.59;;;23.31;74.95
28927;BME280;16038;47.692;9.400;2023-10-09T09:13:03;97433.81;;;21.86;83.52
28927;BME280;16038;47.692;9.400;2023-10-09T09:15:30;97440.16;;;22.54;80.58
28927;BME280;16038;47.692;9.400;2023-10-09T09:18:08;97440.25;;;22.50;78.33
28927;BME280;16038;47.692;9.400;2023-10-09T09:20:37;97430.28;;;22.29;79.15
28927;BME280;16038;47.692;9.400;2023-10-09T09:23:09;97427.56;;;22.86;75.90
28927;BME280;16038;47.692;9.400;2023-10-09T09:25:44;97438.88;;;22.99;70.51
28927;BME280;16038;47.692;9.400;2023-10-09T09:28:14;97431.00;;;23.14;70.94
28927;BME280;16038;47.692;9.400;2023-10-09T09:30:45;97427.00;;;23.15;69.21
28927;BME280;16038;47.692;9.400;2023-10-09T09:33:25;97431.66;;;23.01;67.77
28927;BME280;16038;47.692;9.400;2023-10-09T09:36:06;97427.66;;;22.62;71.36
28927;BME280;16038;47.692;9.400;2023-10-09T09:38:33;97429.16;;;22.67;71.19
28927;BME280;16038;47.692;9.400;2023-10-09T09:41:16;97420.97;;;22.96;68.12
28927;BME280;16038;47.692;9.400;2023-10-09T09:43:53;97416.69;;;22.91;70.78
28927;BME280;16038;47.692;9.400;2023-10-09T09:46:21;97422.09;;;22.19;74.58
28927;BME280;16038;47.692;9.400;2023-10-09T09:48:53;97430.16;;;22.13;76.48
28927;BME280;16038;47.692;9.400;2023-10-09T09:51:25;97422.66;;;21.63;78.44
28927;BME280;16038;47.692;9.400;2023-10-09T09:53:54;97424.63;;;21.62;80.15
28927;BME280;16038;47.692;9.400;2023-10-09T09:56:20;97429.22;;;21.49;77.04
28927;BME280;16038;47.692;9.400;2023-10-09T09:58:49;97426.94;;;21.67;77.61
28927;BME280;16038;47.692;9.400;2023-10-09T10:01:19;97422.94;;;21.68;74.63
28927;BME280;16038;47.692;9.400;2023-10-09T10:03:58;97426.94;;;21.67;71.33
28927;BME280;16038;47.692;9.400;2023-10-09T10:06:25;97423.78;;;21.89;70.45
28927;BME280;16038;47.692;9.400;2023-10-09T10:08:53;97420.59;;;21.90;66.22
28927;BME280;16038;47.692;9.400;2023-10-09T10:11:45;97422.78;;;21.79;66.80
28927;BME280;16038;47.692;9.400;2023-10-09T10:14:12;97418.03;;;21.76;68.64
28927;BME280;16038;47.692;9.400;2023-10-09T10:17:06;97421.84;;;21.62;69.90
28927;BME280;16038;47.692;9.400;2023-10-09T10:20:08;97418.53;;;21.44;72.50
28927;BME280;16038;47.692;9.400;2023-10-09T10:22:42;97424.03;;;21.74;70.54
28927;BME280;16038;47.692;9.400;2023-10-09T10:28:26;97410.28;;;21.36;69.34
28927;BME280;16038;47.692;9.400;2023-10-09T10:31:05;97404.09;;;21.52;70.78
28927;BME280;16038;47.692;9.400;2023-10-09T10:36:23;97415.84;;;21.36;71.57
28927;BME280;16038;47.692;9.400;2023-10-09T10:39:21;97413.88;;;20.41;78.38
28927;BME280;16038;47.692;9.400;2023-10-09T10:41:53;97409.41;;;21.16;76.91
28927;BME280;16038;47.692;9.400;2023-10-09T10:44:30;97414.44;;;20.94;76.78
28927;BME280;16038;47.692;9.400;2023-10-09T10:47:12;97408.63;;;21.12;77.22
28927;BME280;16038;47.692;9.400;2023-10-09T10:49:51;97405.25;;;21.79;74.41
28927;BME280;16038;47.692;9.400;2023-10-09T10:52:24;97401.47;;;22.12;71.66
28927;BME280;16038;47.692;9.400;2023-10-09T10:55:14;97402.16;;;22.80;68.82
28927;BME280;16038;47.692;9.400;2023-10-09T10:57:44;97406.06;;;23.23;66.87
28927;BME280;16038;47.692;9.400;2023-10-09T11:00:19;97406.16;;;23.36;66.23
28927;BME280;16038;47.692;9.400;2023-10-09T11:03:03;97400.56;;;23.69;64.48
28927;BME280;16038;47.692;9.400;2023-10-09T11:05:44;97398.91;;;23.38;66.90
28927;BME280;16038;47.692;9.400;2023-10-09T11:08:17;97395.88;;;23.82;65.03
28927;BME280;16038;47.692;9.400;2023-10-09T11:10:50;97395.41;;;24.00;63.12
28927;BME280;16038;47.692;9.400;2023-10-09T11:13:26;97402.88;;;23.90;64.04
28927;BME280;16038;47.692;9.400;2023-10-09T11:15:56;97393.22;;;24.08;64.53
28927;BME280;16038;47.692;9.400;2023-10-09T11:18:41;97395.97;;;24.24;63.89
28927;BME280;16038;47.692;9.400;2023-10-09T11:21:13;97400.28;;;24.41;62.80
28927;BME280;16038;47.692;9.400;2023-10-09T11:23:40;97386.38;;;24.09;64.56
28927;BME280;16038;47.692;9.400;2023-10-09T11:26:18;97386.16;;;24.32;64.79
28927;BME280;16038;47.692;9.400;2023-10-09T11:29:13;97390.44;;;24.37;63.46
28927;BME280;16038;47.692;9.400;2023-10-09T11:31:56;97391.78;;;24.45;65.42
28927;BME280;16038;47.692;9.400;2023-10-09T11:34:22;97390.88;;;24.35;65.31
28927;BME280;16038;47.692;9.400;2023-10-09T11:37:13;97385.88;;;24.72;64.51
28927;BME280;16038;47.692;9.400;2023-10-09T11:39:57;97372.69;;;25.11;62.06
28927;BME280;16038;47.692;9.400;2023-10-09T11:42:24;97371.81;;;25.40;60.92
28927;BME280;16038;47.692;9.400;2023-10-09T11:45:20;97365.38;;;24.88;61.31
28927;BME280;16038;47.692;9.400;2023-10-09T11:47:51;97362.16;;;24.18;61.13
28927;BME280;16038;47.692;9.400;2023-10-09T11:50:39;97371.56;;;23.95;59.49
28927;BME280;16038;47.692;9.400;2023-10-09T11:53:09;97367.84;;;24.15;64.39
28927;BME280;16038;47.692;9.400;2023-10-09T11:55:43;97366.41;;;24.23;69.13
28927;BME280;16038;47.692;9.400;2023-10-09T11:58:15;97351.53;;;23.80;71.61
28927;BME280;16038;47.692;9.400;2023-10-09T12:00:40;97357.75;;;23.22;74.96
28927;BME280;16038;47.692;9.400;2023-10-09T12:03:12;97356.88;;;23.09;75.91
28927;BME280;16038;47.692;9.400;2023-10-09T12:05:38;97341.75;;;22.70;77.61
28927;BME280;16038;47.692;9.400;2023-10-09T12:08:08;97338.34;;;22.42;78.93
28927;BME280;16038;47.692;9.400;2023-10-09T12:10:34;97334.13;;;22.34;80.29
28927;BME280;16038;47.692;9.400;2023-10-09T12:13:03;97334.66;;;22.25;78.89
28927;BME280;16038;47.692;9.400;2023-10-09T12:15:30;97335.34;;;22.33;79.38
28927;BME280;16038;47.692;9.400;2023-10-09T12:18:11;97333.47;;;22.26;78.49
28927;BME280;16038;47.692;9.400;2023-10-09T12:20:44;97337.44;;;22.25;78.39
28927;BME280;16038;47.692;9.400;2023-10-09T12:23:27;97333.53;;;22.23;78.74
28927;BME280;16038;47.692;9.400;2023-10-09T12:25:53;97333.38;;;22.10;78.82
28927;BME280;16038;47.692;9.400;2023-10-09T12:28:22;97327.84;;;21.86;80.10
28927;BME280;16038;47.692;9.400;2023-10-09T12:30:48;97324.22;;;21.66;83.71
28927;BME280;16038;47.692;9.400;2023-10-09T12:33:17;97331.09;;;21.61;83.27
28927;BME280;16038;47.692;9.400;2023-10-09T12:35:44;97320.84;;;21.04;88.76
28927;BME280;16038;47.692;9.400;2023-10-09T12:38:11;97324.13;;;21.22;88.23
28927;BME280;16038;47.692;9.400;2023-10-09T12:40:38;97328.28;;;21.10;88.98
28927;BME280;16038;47.692;9.400;2023-10-09T12:43:19;97324.94;;;20.95;89.77
28927;BME280;16038;47.692;9.400;2023-10-09T12:45:45;97324.03;;;20.75;91.02
28927;BME280;16038;47.692;9.400;2023-10-09T12:48:11;97315.22;;;20.49;93.97
28927;BME280;16038;47.692;9.400;2023-10-09T12:50:38;97319.63;;;20.47;93.22
28927;BME280;16038;47.692;9.400;2023-10-09T12:53:10;97321.22;;;20.48;92.60
28927;BME280;16038;47.692;9.400;2023-10-09T12:55:39;97315.66;;;20.48;92.67
28927;BME280;16038;47.692;9.400;2023-10-09T12:58:06;97321.81;;;20.32;93.06
28927;BME280;16038;47.692;9.400;2023-10-09T13:00:36;97310.84;;;20.17;95.23
28927;BME280;16038;47.692;9.400;2023-10-09T13:03:10;97314.91;;;20.09;96.48
28927;BME280;16038;47.692;9.400;2023-10-09T13:05:52;97304.41;;;19.90;98.23
28927;BME280;16038;47.692;9.400;2023-10-09T13:08:19;97303.66;;;19.85;99.72
28927;BME280;16038;47.692;9.400;2023-10-09T13:10:50;97301.56;;;19.93;99.77
28927;BME280;16038;47.692;9.400;2023-10-09T13:13:29;97299.56;;;19.97;97.59
28927;BME280;16038;47.692;9.400;2023-10-09T13:16:13;97302.44;;;19.90;98.45
28927;BME280;16038;47.692;9.400;2023-10-09T13:18:56;97301.94;;;19.99;97.40
28927;BME280;16038;47.692;9.400;2023-10-09T13:21:26;97304.59;;;20.10;96.59
28927;BME280;16038;47.692;9.400;2023-10-09T13:23:52;97309.31;;;20.13;96.24
28927;BME280;16038;47.692;9.400;2023-10-09T13:26:21;97303.69;;;20.16;94.90
28927;BME280;16038;47.692;9.400;2023-10-09T13:28:54;97300.69;;;20.03;96.23
28927;BME280;16038;47.692;9.400;2023-10-09T13:31:22;97297.69;;;19.87;100.00
28927;BME280;16038;47.692;9.400;2023-10-09T13:33:51;97295.75;;;19.80;100.00
28927;BME280;16038;47.692;9.400;2023-10-09T13:36:20;97295.88;;;19.66;100.00
28927;BME280;16038;47.692;9.400;2023-10-09T13:38:58;97295.50;;;19.64;100.00
28927;BME280;16038;47.692;9.400;2023-10-09T13:41:44;97297.09;;;19.65;100.00
28927;BME280;16038;47.692;9.400;2023-10-09T13:44:10;97293.03;;;19.77;100.00
28927;BME280;16038;47.692;9.400;2023-10-09T13:46:35;97291.91;;;19.67;100.00
28927;BME280;16038;47.692;9.400;2023-10-09T13:49:09;97279.69;;;19.61;100.00
28927;BME280;16038;47.692;9.400;2023-10-09T13:51:40;97280.59;;;19.47;100.00
28927;BME280;16038;47.692;9.400;2023-10-09T13:54:12;97267.56;;;19.40;100.00
28927;BME280;16038;47.692;9.400;2023-10-09T13:56:47;97268.03;;;19.32;100.00
28927;BME280;16038;47.692;9.400;2023-10-09T13:59:21;97263.28;;;19.32;100.00